Time;durP1;ratioP1;P1;durP2;ratioP2;P2;SDS_P1;SDS_P2;PMS_P1;PMS_P2;Temp;Humidity;BMP_temperature;BMP_pressure;BME280_temperature;BME280_humidity;BME280_pressure;Samples;Min_cycle;Max_cycle;Signal;HPM_P1;HPM_P2
2023/07/13 00:00:47;;;;;;;4.10;2.77;;;27.00;33.70;;;;;;5074501;28;20291;-56
2023/07/13 00:03:13;;;;;;;3.60;2.90;;;27.00;32.70;;;;;;5075231;28;20456;-53
2023/07/13 00:05:41;;;;;;;7.20;2.63;;;27.00;33.60;;;;;;5075129;28;20395;-53
2023/07/13 00:08:08;;;;;;;9.80;3.00;;;27.00;33.40;;;;;;5074502;28;20497;-55
2023/07/13 00:10:34;;;;;;;6.53;2.80;;;26.90;33.00;;;;;;5071757;28;20462;-53
2023/07/13 00:13:00;;;;;;;6.10;2.53;;;26.90;33.10;;;;;;5073049;28;20454;-55
2023/07/13 00:15:29;;;;;;;4.03;3.00;;;26.80;33.20;;;;;;5073203;28;20413;-55
2023/07/13 00:17:56;;;;;;;3.00;2.40;;;26.80;33.80;;;;;;5073428;28;20403;-53
2023/07/13 00:20:24;;;;;;;4.57;2.80;;;26.80;34.20;;;;;;5072725;28;20468;-55
2023/07/13 00:22:53;;;;;;;5.73;2.93;;;26.80;34.20;;;;;;5073326;28;20410;-54
2023/07/13 00:25:28;;;;;;;7.70;3.20;;;26.70;33.20;;;;;;5073055;28;20410;-53
2023/07/13 00:27:54;;;;;;;4.97;3.00;;;26.80;33.70;;;;;;5072972;28;20401;-55
2023/07/13 00:30:20;;;;;;;3.23;2.60;;;26.70;35.20;;;;;;5072607;28;20430;-52
2023/07/13 00:32:46;;;;;;;6.50;3.10;;;26.70;33.30;;;;;;5072976;28;20407;-54
2023/07/13 00:35:14;;;;;;;6.80;2.50;;;26.70;33.00;;;;;;5071527;28;20173;-54
2023/07/13 00:37:40;;;;;;;4.27;3.10;;;26.70;32.80;;;;;;5072725;28;20173;-51
2023/07/13 00:40:06;;;;;;;4.50;3.03;;;26.70;32.60;;;;;;5072446;28;20461;-51
2023/07/13 00:42:32;;;;;;;4.10;3.13;;;26.70;32.10;;;;;;5072623;28;20439;-53
2023/07/13 00:45:03;;;;;;;4.50;2.60;;;26.70;32.10;;;;;;5072572;28;20414;-54
2023/07/13 00:47:28;;;;;;;6.77;2.80;;;26.70;31.90;;;;;;5072711;28;20410;-52
2023/07/13 00:49:54;;;;;;;5.10;2.93;;;26.60;32.50;;;;;;5072401;28;20434;-53
2023/07/13 00:52:20;;;;;;;3.23;2.60;;;26.50;34.10;;;;;;5072599;28;20176;-53
2023/07/13 00:54:46;;;;;;;3.90;2.63;;;26.50;33.90;;;;;;5072577;28;20169;-53
2023/07/13 00:57:15;;;;;;;3.37;2.77;;;26.40;34.60;;;;;;5072819;28;20201;-54
2023/07/13 00:59:46;;;;;;;5.80;4.37;;;26.20;35.10;;;;;;5072605;28;20938;-54
2023/07/13 01:02:12;;;;;;;4.53;2.93;;;26.20;35.90;;;;;;5073496;28;20388;-54
2023/07/13 01:04:38;;;;;;;5.53;2.73;;;26.10;36.90;;;;;;5073384;28;20494;-54
2023/07/13 01:07:06;;;;;;;6.00;2.90;;;26.00;37.70;;;;;;5073885;28;20442;-54
2023/07/13 01:09:32;;;;;;;6.77;3.73;;;26.00;38.60;;;;;;5072646;28;20533;-54
2023/07/13 01:11:59;;;;;;;4.50;3.03;;;26.10;39.40;;;;;;5073837;28;20430;-52
2023/07/13 01:14:25;;;;;;;3.40;3.10;;;26.00;39.50;;;;;;5072916;28;20431;-54
2023/07/13 01:16:51;;;;;;;4.43;3.00;;;26.00;39.90;;;;;;5073199;28;21094;-54
2023/07/13 01:19:39;;;;;;;4.50;3.50;;;26.00;38.70;;;;;;5073121;28;20423;-51
2023/07/13 01:22:16;;;;;;;4.63;3.40;;;25.90;38.30;;;;;;5073418;28;20422;-53
2023/07/13 01:24:45;;;;;;;4.87;3.00;;;25.80;39.10;;;;;;5073368;28;20899;-54
2023/07/13 01:27:15;;;;;;;3.70;3.40;;;25.80;39.10;;;;;;5073067;28;20396;-54
2023/07/13 01:29:43;;;;;;;8.23;3.67;;;25.80;39.20;;;;;;5073021;28;20419;-54
2023/07/13 01:32:16;;;;;;;4.57;3.80;;;25.80;38.50;;;;;;5073076;28;20921;-54
2023/07/13 01:34:42;;;;;;;6.50;3.07;;;25.80;39.30;;;;;;5072925;28;20914;-54
2023/07/13 01:37:09;;;;;;;3.37;3.07;;;25.70;39.10;;;;;;5073361;28;20391;-53
2023/07/13 01:39:35;;;;;;;4.37;3.30;;;25.80;38.30;;;;;;5072883;28;20989;-54
2023/07/13 01:42:01;;;;;;;3.83;3.13;;;25.70;38.70;;;;;;5072940;28;20414;-53
2023/07/13 01:44:27;;;;;;;4.43;3.33;;;25.70;38.30;;;;;;5072931;28;20403;-53
2023/07/13 01:46:53;;;;;;;4.20;3.17;;;25.70;37.70;;;;;;5073367;28;20399;-54
2023/07/13 01:49:19;;;;;;;4.20;3.23;;;25.60;37.80;;;;;;5073064;28;20275;-53
2023/07/13 01:51:44;;;;;;;5.83;2.97;;;25.60;37.90;;;;;;5073154;28;20196;-51
2023/07/13 01:54:10;;;;;;;3.80;3.23;;;25.60;37.60;;;;;;5073233;28;20687;-53
2023/07/13 01:56:36;;;;;;;3.93;3.33;;;25.60;37.50;;;;;;5073286;28;20173;-54
2023/07/13 01:59:02;;;;;;;4.07;3.33;;;25.50;38.50;;;;;;5073152;28;20246;-53
2023/07/13 02:01:28;;;;;;;6.57;3.33;;;25.50;38.80;;;;;;5072826;28;20249;-53
2023/07/13 02:03:53;;;;;;;5.03;3.80;;;25.50;38.50;;;;;;5073148;28;20911;-55
2023/07/13 02:06:19;;;;;;;5.60;3.53;;;25.50;38.60;;;;;;5073382;28;20229;-52
2023/07/13 02:08:45;;;;;;;3.40;2.57;;;25.40;39.30;;;;;;5072858;28;20169;-54
2023/07/13 02:11:11;;;;;;;8.20;3.57;;;25.30;39.10;;;;;;5072992;28;20165;-54
2023/07/13 02:13:36;;;;;;;5.00;3.10;;;25.30;38.70;;;;;;5073247;28;20192;-52
2023/07/13 02:16:02;;;;;;;4.00;3.23;;;25.30;38.80;;;;;;5073164;28;20173;-52
2023/07/13 02:18:28;;;;;;;3.57;3.07;;;25.30;38.50;;;;;;5073020;28;20180;-52
2023/07/13 02:20:54;;;;;;;4.10;3.53;;;25.30;39.30;;;;;;5075485;28;20450;-54
2023/07/13 02:23:20;;;;;;;3.63;3.07;;;25.20;40.00;;;;;;5077228;28;20247;-52
2023/07/13 02:25:46;;;;;;;4.33;3.43;;;25.20;39.10;;;;;;5076722;28;20644;-55
2023/07/13 02:28:12;;;;;;;4.83;3.93;;;25.20;38.50;;;;;;5075220;28;20168;-54
2023/07/13 02:30:38;;;;;;;5.13;3.50;;;25.20;39.10;;;;;;5076102;28;20437;-51
2023/07/13 02:33:04;;;;;;;4.33;3.33;;;25.20;38.90;;;;;;5076634;28;20184;-54
2023/07/13 02:35:30;;;;;;;4.40;3.30;;;25.20;39.40;;;;;;5076281;28;20431;-55
2023/07/13 02:37:56;;;;;;;4.90;3.63;;;25.20;40.00;;;;;;5076461;28;20418;-52
2023/07/13 02:40:22;;;;;;;4.90;3.30;;;25.20;39.60;;;;;;5076032;28;20541;-53
2023/07/13 02:42:48;;;;;;;4.80;3.33;;;25.10;40.30;;;;;;5076346;28;20767;-54
2023/07/13 02:45:14;;;;;;;6.20;3.73;;;25.10;40.50;;;;;;5076030;28;20442;-52
2023/07/13 02:47:41;;;;;;;6.20;3.33;;;25.00;40.70;;;;;;5076116;28;20180;-52
2023/07/13 02:50:08;;;;;;;7.40;3.60;;;25.00;40.30;;;;;;5076208;28;20554;-53
2023/07/13 02:52:33;;;;;;;5.83;2.67;;;25.10;40.80;;;;;;5076091;28;20402;-54
2023/07/13 02:54:59;;;;;;;6.10;4.10;;;25.10;40.70;;;;;;5076230;28;20418;-54
2023/07/13 02:57:25;;;;;;;4.43;3.80;;;25.60;40.80;;;;;;5076365;28;20180;-52
2023/07/13 02:59:51;;;;;;;4.63;3.83;;;25.00;41.00;;;;;;5075441;28;20683;-54
2023/07/13 03:02:16;;;;;;;5.90;4.03;;;25.00;41.60;;;;;;5075972;28;20243;-54
2023/07/13 03:04:42;;;;;;;4.53;3.40;;;25.00;41.60;;;;;;5076163;28;20179;-53
2023/07/13 03:07:08;;;;;;;4.13;3.73;;;25.00;41.50;;;;;;5075928;28;20169;-52
2023/07/13 03:09:35;;;;;;;4.90;3.70;;;25.10;41.40;;;;;;5075667;28;20192;-55
2023/07/13 03:12:00;;;;;;;4.80;4.30;;;25.00;41.60;;;;;;5075856;28;20208;-52
2023/07/13 03:14:26;;;;;;;5.50;3.67;;;25.00;41.70;;;;;;5075861;28;20472;-52
2023/07/13 03:16:52;;;;;;;7.10;5.03;;;24.90;42.30;;;;;;5075880;28;20454;-55
2023/07/13 03:19:19;;;;;;;4.10;3.70;;;24.90;42.10;;;;;;5075026;28;20927;-55
2023/07/13 03:21:45;;;;;;;5.20;4.63;;;24.90;42.60;;;;;;5075440;28;20450;-52
2023/07/13 03:24:10;;;;;;;5.60;4.33;;;24.80;42.90;;;;;;5075588;28;20399;-55
2023/07/13 03:26:36;;;;;;;5.83;4.20;;;24.80;43.10;;;;;;5075313;28;21106;-54
2023/07/13 03:29:02;;;;;;;6.20;5.30;;;24.70;43.60;;;;;;5075425;28;20185;-55
2023/07/13 03:31:30;;;;;;;5.60;4.40;;;24.70;43.90;;;;;;5074468;28;20421;-53
2023/07/13 03:33:57;;;;;;;7.37;4.13;;;24.70;43.90;;;;;;5075285;28;20165;-53
2023/07/13 03:36:25;;;;;;;5.73;4.20;;;24.60;44.00;;;;;;5075471;28;20504;-53
2023/07/13 03:38:53;;;;;;;5.87;5.00;;;24.60;44.20;;;;;;5075239;28;20496;-52
2023/07/13 03:41:20;;;;;;;6.60;4.37;;;24.50;44.60;;;;;;5075170;28;20453;-55
2023/07/13 03:43:49;;;;;;;7.43;4.30;;;24.50;44.50;;;;;;5075130;28;20479;-53
2023/07/13 03:46:16;;;;;;;4.57;4.17;;;24.50;44.70;;;;;;5075144;28;20403;-53
2023/07/13 03:48:45;;;;;;;4.77;4.37;;;24.50;44.80;;;;;;5074863;28;20794;-53
2023/07/13 03:51:14;;;;;;;5.27;4.17;;;24.50;44.80;;;;;;5074756;28;20409;-52
2023/07/13 03:53:42;;;;;;;4.97;3.53;;;24.50;44.70;;;;;;5075259;28;20465;-52
2023/07/13 03:56:08;;;;;;;7.10;4.40;;;24.50;44.90;;;;;;5074862;28;20557;-55
2023/07/13 03:58:39;;;;;;;8.07;4.77;;;24.60;45.20;;;;;;5074816;28;20501;-53
2023/07/13 04:01:07;;;;;;;6.70;3.93;;;24.50;45.40;;;;;;5074908;28;20529;-52
2023/07/13 04:03:34;;;;;;;6.67;4.33;;;24.50;45.20;;;;;;5074874;28;20805;-51
2023/07/13 04:06:01;;;;;;;5.83;4.77;;;24.60;45.30;;;;;;5074635;28;20402;-53
2023/07/13 04:08:33;;;;;;;5.03;4.53;;;24.60;45.20;;;;;;5074785;28;20479;-55
2023/07/13 04:10:59;;;;;;;6.97;5.13;;;24.60;45.20;;;;;;5074436;28;20446;-52
2023/07/13 04:13:26;;;;;;;7.87;4.43;;;24.60;45.30;;;;;;5074274;28;20426;-52
2023/07/13 04:15:52;;;;;;;5.23;4.03;;;24.60;44.80;;;;;;5074514;28;20503;-53
2023/07/13 04:18:19;;;;;;;4.50;3.97;;;24.70;44.10;;;;;;5074269;28;20403;-56
2023/07/13 04:20:46;;;;;;;6.10;4.27;;;24.70;43.80;;;;;;5073935;28;20457;-56
2023/07/13 04:23:12;;;;;;;4.50;3.77;;;24.80;43.40;;;;;;5074800;28;20408;-52
2023/07/13 04:25:38;;;;;;;5.27;4.60;;;24.80;43.00;;;;;;5074157;28;20402;-52
2023/07/13 04:28:04;;;;;;;5.00;3.20;;;24.90;43.40;;;;;;5074330;28;20460;-53
2023/07/13 04:30:30;;;;;;;4.77;3.50;;;24.90;43.40;;;;;;5074160;28;20252;-55
2023/07/13 04:32:56;;;;;;;5.20;3.83;;;25.00;43.90;;;;;;5074285;28;20414;-53
2023/07/13 04:35:22;;;;;;;8.00;3.73;;;25.00;43.30;;;;;;5074080;28;20458;-53
2023/07/13 04:37:50;;;;;;;5.37;2.90;;;25.00;42.00;;;;;;5073980;28;20176;-55
2023/07/13 04:40:17;;;;;;;4.93;4.40;;;25.00;42.40;;;;;;5072087;28;20486;-52
2023/07/13 04:42:44;;;;;;;5.10;3.63;;;25.00;42.80;;;;;;5073770;28;20426;-54
2023/07/13 04:45:11;;;;;;;5.77;3.70;;;25.00;43.10;;;;;;5073543;28;20410;-53
2023/07/13 04:47:37;;;;;;;6.93;4.33;;;25.00;43.30;;;;;;5074403;28;20474;-53
2023/07/13 04:50:03;;;;;;;4.60;3.77;;;25.00;43.50;;;;;;5073529;28;20498;-54
2023/07/13 04:52:29;;;;;;;6.60;4.67;;;25.00;43.20;;;;;;5073948;28;20544;-53
2023/07/13 04:54:54;;;;;;;4.33;3.60;;;25.00;43.10;;;;;;5073644;28;20407;-53
2023/07/13 04:57:20;;;;;;;7.27;3.30;;;25.00;43.20;;;;;;5073495;28;20179;-54
2023/07/13 04:59:46;;;;;;;6.80;3.80;;;25.00;43.20;;;;;;5073144;28;20203;-55
2023/07/13 05:02:11;;;;;;;7.40;3.87;;;25.00;43.00;;;;;;5073669;28;20169;-54
2023/07/13 05:04:37;;;;;;;6.37;3.53;;;25.10;42.40;;;;;;5073730;28;20262;-56
2023/07/13 05:07:03;;;;;;;9.90;4.50;;;25.10;40.80;;;;;;5073899;28;20686;-52
2023/07/13 05:09:29;;;;;;;4.50;3.97;;;25.20;40.70;;;;;;5073323;28;20192;-52
2023/07/13 05:11:55;;;;;;;5.10;3.70;;;25.20;40.00;;;;;;5073610;28;20995;-53
2023/07/13 05:14:20;;;;;;;4.43;3.90;;;25.30;39.90;;;;;;5073232;28;20189;-54
2023/07/13 05:16:46;;;;;;;4.77;3.53;;;25.40;39.70;;;;;;5071947;28;20607;-52
2023/07/13 05:19:12;;;;;;;4.63;3.40;;;25.40;39.70;;;;;;5073028;28;20275;-55
2023/07/13 05:21:38;;;;;;;5.47;3.93;;;25.50;40.00;;;;;;5071714;28;20248;-52
2023/07/13 05:24:04;;;;;;;6.00;4.80;;;25.60;39.60;;;;;;5072926;28;20446;-53
2023/07/13 05:26:30;;;;;;;5.13;3.47;;;25.70;38.50;;;;;;5073185;28;21126;-54
2023/07/13 05:28:55;;;;;;;3.70;2.83;;;25.70;38.50;;;;;;5073009;28;20193;-55
2023/07/13 05:31:21;;;;;;;3.97;2.93;;;25.70;38.30;;;;;;5072904;28;20179;-52
2023/07/13 05:33:47;;;;;;;10.80;4.00;;;25.70;38.30;;;;;;5072980;28;20173;-53
2023/07/13 05:36:12;;;;;;;5.30;3.40;;;25.70;38.60;;;;;;5072970;28;20533;-54
2023/07/13 05:38:39;;;;;;;6.67;3.60;;;25.70;38.00;;;;;;5072951;28;20179;-56
2023/07/13 05:41:06;;;;;;;5.40;4.10;;;25.70;37.70;;;;;;5072932;28;20208;-53
2023/07/13 05:43:32;;;;;;;8.90;4.73;;;25.70;38.30;;;;;;5071970;28;20414;-53
2023/07/13 05:45:57;;;;;;;5.87;4.33;;;25.80;37.80;;;;;;5073003;28;20887;-53
2023/07/13 05:48:24;;;;;;;7.80;4.17;;;25.90;37.00;;;;;;5072970;28;20911;-55
2023/07/13 05:50:49;;;;;;;12.53;3.80;;;25.90;37.50;;;;;;5072721;28;20196;-52
2023/07/13 05:53:15;;;;;;;6.03;3.70;;;25.90;37.20;;;;;;5073028;28;20417;-53
2023/07/13 05:55:43;;;;;;;5.70;3.13;;;25.90;37.20;;;;;;5075735;28;20179;-54
2023/07/13 05:58:09;;;;;;;5.77;3.53;;;26.00;37.50;;;;;;5077318;28;20410;-52
2023/07/13 06:00:35;;;;;;;8.20;3.33;;;26.00;37.20;;;;;;5076477;28;20545;-54
2023/07/13 06:03:01;;;;;;;5.10;3.97;;;26.10;37.70;;;;;;5076791;28;20502;-53
2023/07/13 06:05:28;;;;;;;8.10;3.77;;;26.20;38.00;;;;;;5076443;28;20208;-55
2023/07/13 06:07:55;;;;;;;10.27;4.10;;;26.30;37.60;;;;;;5077033;28;20403;-54
2023/07/13 06:10:21;;;;;;;5.40;3.13;;;26.40;37.00;;;;;;5076891;28;20434;-52
2023/07/13 06:12:46;;;;;;;4.10;3.40;;;26.40;36.60;;;;;;5076632;28;20418;-52
2023/07/13 06:15:12;;;;;;;7.30;3.80;;;26.40;36.40;;;;;;5076703;28;20502;-54
2023/07/13 06:17:38;;;;;;;4.30;3.50;;;26.40;36.20;;;;;;5076916;28;20172;-54
2023/07/13 06:20:04;;;;;;;7.67;3.53;;;26.40;36.80;;;;;;5075926;28;20236;-54
2023/07/13 06:22:30;;;;;;;9.10;3.87;;;26.40;36.40;;;;;;5077024;28;20165;-54
2023/07/13 06:24:56;;;;;;;4.60;3.10;;;26.40;36.50;;;;;;5076690;28;20413;-53
2023/07/13 06:27:21;;;;;;;7.20;3.30;;;26.40;36.60;;;;;;5076247;28;20169;-52
2023/07/13 06:29:47;;;;;;;6.30;3.13;;;26.50;36.70;;;;;;5076375;28;20230;-53
2023/07/13 06:32:13;;;;;;;6.53;3.40;;;26.50;36.70;;;;;;5076267;28;20176;-55
2023/07/13 06:34:38;;;;;;;6.27;4.17;;;26.50;36.90;;;;;;5074950;28;20169;-55
2023/07/13 06:37:04;;;;;;;4.70;3.27;;;26.60;36.80;;;;;;5075848;28;20209;-52
2023/07/13 06:39:30;;;;;;;4.27;3.43;;;26.70;36.80;;;;;;5075752;28;20185;-52
2023/07/13 06:41:56;;;;;;;7.63;3.43;;;26.70;36.30;;;;;;5076034;28;20856;-52
2023/07/13 06:44:21;;;;;;;4.73;3.77;;;26.70;36.10;;;;;;5076220;28;20639;-55
2023/07/13 06:46:47;;;;;;;7.80;3.60;;;26.80;35.90;;;;;;5075959;28;20207;-54
2023/07/13 06:49:13;;;;;;;6.43;3.60;;;26.90;35.90;;;;;;5075950;28;20322;-52
2023/07/13 06:51:39;;;;;;;4.40;3.20;;;27.00;35.70;;;;;;5076045;28;20747;-53
2023/07/13 06:54:05;;;;;;;7.53;4.37;;;27.20;36.30;;;;;;5075743;28;20173;-54
2023/07/13 06:56:30;;;;;;;6.17;3.40;;;27.40;35.90;;;;;;5074645;28;20181;-56
2023/07/13 06:58:56;;;;;;;5.20;4.07;;;27.50;36.40;;;;;;5076468;28;20214;-52
2023/07/13 07:01:22;;;;;;;11.70;3.50;;;27.60;35.70;;;;;;5076080;28;20679;-52
2023/07/13 07:03:48;;;;;;;4.50;2.73;;;27.60;35.30;;;;;;5075756;28;20161;-52
2023/07/13 07:06:20;;;;;;;4.23;2.87;;;27.60;34.50;;;;;;5074966;28;20517;-55
2023/07/13 07:08:46;;;;;;;8.10;3.43;;;27.60;35.00;;;;;;5076198;28;20164;-55
2023/07/13 07:11:14;;;;;;;5.73;3.33;;;27.60;35.60;;;;;;5075844;28;20464;-52
2023/07/13 07:13:40;;;;;;;4.43;3.37;;;27.80;34.70;;;;;;5075820;28;20423;-52
2023/07/13 07:16:06;;;;;;;5.10;4.30;;;27.80;35.10;;;;;;5075795;28;20767;-52
2023/07/13 07:18:32;;;;;;;6.67;4.00;;;27.80;34.80;;;;;;5075708;28;20652;-55
2023/07/13 07:20:58;;;;;;;6.20;3.87;;;27.80;34.20;;;;;;5074393;28;20454;-52
2023/07/13 07:23:24;;;;;;;6.57;4.30;;;27.80;34.60;;;;;;5075616;28;20169;-55
2023/07/13 07:25:51;;;;;;;11.50;3.17;;;27.80;34.40;;;;;;5075826;28;20930;-52
2023/07/13 07:28:20;;;;;;;6.57;3.63;;;27.80;34.80;;;;;;5075358;28;20173;-54
2023/07/13 07:30:47;;;;;;;8.70;4.10;;;27.80;35.10;;;;;;5075245;28;20564;-52
2023/07/13 07:33:13;;;;;;;6.40;3.20;;;27.90;33.90;;;;;;5075526;28;20422;-52
2023/07/13 07:35:39;;;;;;;6.10;3.97;;;28.00;34.70;;;;;;5074993;28;20418;-55
2023/07/13 07:38:05;;;;;;;4.33;3.63;;;28.00;35.30;;;;;;5075347;28;20406;-53
2023/07/13 07:40:31;;;;;;;5.70;3.07;;;28.00;34.90;;;;;;5075065;28;20564;-52
2023/07/13 07:42:57;;;;;;;8.60;3.87;;;28.00;34.10;;;;;;5075024;28;20687;-54
2023/07/13 07:45:23;;;;;;;4.97;3.60;;;28.00;34.50;;;;;;5075157;28;20176;-52
2023/07/13 07:47:49;;;;;;;5.97;3.67;;;28.00;33.80;;;;;;5075383;28;20407;-52
2023/07/13 07:50:15;;;;;;;10.10;3.93;;;28.20;34.20;;;;;;5074929;28;20423;-52
2023/07/13 07:52:42;;;;;;;7.13;3.13;;;28.40;34.90;;;;;;5074851;28;20461;-54
2023/07/13 07:55:08;;;;;;;5.10;3.27;;;28.60;32.90;;;;;;5075378;28;20411;-52
2023/07/13 07:57:34;;;;;;;5.43;3.30;;;28.60;33.40;;;;;;5075070;28;20422;-52
2023/07/13 08:00:00;;;;;;;5.20;3.13;;;28.70;33.80;;;;;;5074335;28;20434;-54
2023/07/13 08:02:26;;;;;;;7.47;3.50;;;28.80;32.90;;;;;;5074954;28;20875;-53
2023/07/13 08:04:52;;;;;;;3.67;2.73;;;28.80;32.20;;;;;;5074584;28;20501;-52
2023/07/13 08:07:18;;;;;;;4.33;2.90;;;28.80;32.10;;;;;;5075012;28;20403;-52
2023/07/13 08:09:44;;;;;;;7.07;2.73;;;28.80;31.90;;;;;;5074989;28;20926;-55
2023/07/13 08:12:10;;;;;;;6.50;2.87;;;28.80;31.80;;;;;;5074854;28;20407;-52
2023/07/13 08:14:36;;;;;;;5.97;3.33;;;28.80;30.80;;;;;;5074544;28;20215;-52
2023/07/13 08:17:02;;;;;;;4.80;2.87;;;28.70;29.60;;;;;;5074920;28;20450;-54
2023/07/13 08:19:27;;;;;;;3.97;2.80;;;28.80;31.40;;;;;;5074303;28;20538;-52
2023/07/13 08:21:53;;;;;;;5.67;2.80;;;28.90;32.80;;;;;;5074740;28;20200;-52
2023/07/13 08:24:23;;;;;;;4.50;3.13;;;29.10;32.30;;;;;;5075143;28;20197;-55
2023/07/13 08:26:50;;;;;;;6.73;2.97;;;29.10;31.30;;;;;;5074849;28;20426;-53
2023/07/13 08:29:16;;;;;;;3.90;3.03;;;29.20;30.90;;;;;;5074627;28;20447;-52
2023/07/13 08:31:41;;;;;;;15.67;2.73;;;29.30;30.70;;;;;;5074031;28;20483;-55
2023/07/13 08:34:07;;;;;;;6.70;3.30;;;29.40;30.90;;;;;;5074449;28;20176;-52
2023/07/13 08:36:33;;;;;;;6.97;2.87;;;29.50;31.40;;;;;;5074831;28;20173;-53
2023/07/13 08:38:59;;;;;;;4.60;3.10;;;29.60;31.20;;;;;;5074420;28;20196;-52
2023/07/13 08:41:25;;;;;;;6.53;2.13;;;29.80;31.70;;;;;;5073877;28;20200;-54
2023/07/13 08:43:59;;;;;;;6.03;2.20;;;29.90;30.90;;;;;;5074061;28;20165;-55
2023/07/13 08:46:42;;;;;;;3.83;2.77;;;29.90;29.20;;;;;;5074728;28;20389;-54
2023/07/13 08:49:15;;;;;;;8.23;3.90;;;29.90;29.30;;;;;;5074207;28;20456;-54
2023/07/13 08:51:49;;;;;;;9.53;2.83;;;29.80;30.50;;;;;;5074217;28;20437;-54
2023/07/13 08:54:36;;;;;;;8.17;2.47;;;29.80;29.50;;;;;;5074108;28;20436;-51
2023/07/13 08:57:16;;;;;;;6.23;2.93;;;29.70;30.40;;;;;;5074312;28;20486;-52
2023/07/13 08:59:43;;;;;;;2.97;2.60;;;29.70;30.40;;;;;;5074104;28;20814;-55
2023/07/13 09:02:12;;;;;;;6.00;2.50;;;29.70;29.90;;;;;;5074182;28;20454;-55
2023/07/13 09:04:54;;;;;;;5.40;2.57;;;29.70;28.60;;;;;;5074263;28;20437;-52
2023/07/13 09:07:41;;;;;;;7.00;2.40;;;29.60;29.20;;;;;;5074317;28;20430;-55
2023/07/13 09:10:28;;;;;;;8.03;2.70;;;29.60;29.00;;;;;;5074148;28;20433;-53
2023/07/13 09:12:57;;;;;;;10.40;3.40;;;29.50;30.00;;;;;;5074179;28;20420;-54
2023/07/13 09:15:43;;;;;;;4.03;2.60;;;29.50;30.50;;;;;;5074646;28;20403;-52
2023/07/13 09:18:15;;;;;;;5.63;2.20;;;29.60;28.20;;;;;;5073921;28;20414;-53
2023/07/13 09:20:52;;;;;;;5.33;2.47;;;29.60;29.00;;;;;;5073550;28;20470;-53
2023/07/13 09:23:22;;;;;;;3.73;2.47;;;29.70;29.70;;;;;;5073910;28;20433;-53
2023/07/13 09:25:58;;;;;;;4.33;2.40;;;29.90;30.40;;;;;;5073883;28;20406;-51
2023/07/13 09:28:30;;;;;;;5.03;2.40;;;30.00;28.90;;;;;;5073375;28;20403;-53
2023/07/13 09:31:04;;;;;;;5.33;2.60;;;29.90;27.00;;;;;;5072793;28;20414;-53
2023/07/13 09:33:31;;;;;;;7.80;3.10;;;29.90;28.30;;;;;;5073680;28;20433;-52
2023/07/13 09:35:58;;;;;;;6.17;2.80;;;29.70;27.90;;;;;;5073738;28;20489;-52
2023/07/13 09:38:28;;;;;;;6.73;2.27;;;29.70;28.80;;;;;;5073830;28;20419;-52
2023/07/13 09:41:19;;;;;;;6.50;2.77;;;29.70;29.20;;;;;;5055743;28;20815;-54
2023/07/13 09:44:32;;;;;;;4.70;2.30;;;29.80;29.30;;;;;;5053703;28;20430;-52
2023/07/13 09:46:58;;;;;;;5.00;3.17;;;29.90;30.00;;;;;;5034422;28;20927;-52
2023/07/13 09:49:33;;;;;;;6.50;3.10;;;30.00;29.60;;;;;;5052644;28;20933;-52
2023/07/13 09:52:04;;;;;;;4.60;2.80;;;30.10;30.00;;;;;;5053019;28;20415;-54
2023/07/13 09:54:35;;;;;;;4.57;2.33;;;30.10;28.80;;;;;;5053172;28;20415;-54
2023/07/13 09:57:03;;;;;;;3.30;2.13;;;30.00;28.30;;;;;;5053064;28;20416;-51
2023/07/13 09:59:39;;;;;;;3.60;2.20;;;30.00;28.90;;;;;;5052908;28;20439;-52
2023/07/13 10:02:29;;;;;;;5.07;2.70;;;30.10;29.40;;;;;;5052668;28;20458;-54
2023/07/13 10:05:11;;;;;;;5.37;2.33;;;30.30;29.50;;;;;;5052582;28;20423;-52
2023/07/13 10:07:44;;;;;;;6.70;2.67;;;30.50;28.50;;;;;;5052698;28;20888;-53
2023/07/13 10:10:36;;;;;;;6.70;2.47;;;30.50;29.20;;;;;;5052409;28;20461;-55
2023/07/13 10:13:04;;;;;;;4.30;2.50;;;30.50;26.80;;;;;;5052095;28;20448;-55
2023/07/13 10:15:30;;;;;;;3.77;2.20;;;30.40;26.50;;;;;;5052772;28;20399;-52
2023/07/13 10:17:57;;;;;;;3.73;2.50;;;30.40;28.50;;;;;;5052707;28;20405;-52
2023/07/13 10:20:26;;;;;;;4.40;2.43;;;30.30;27.70;;;;;;5052614;28;20539;-54
2023/07/13 10:23:20;;;;;;;6.93;2.93;;;30.20;26.50;;;;;;5052322;28;20947;-52
2023/07/13 10:25:48;;;;;;;3.70;2.03;;;30.20;27.70;;;;;;5052934;28;20406;-52
2023/07/13 10:28:28;;;;;;;5.07;2.10;;;30.10;27.90;;;;;;5052512;28;20412;-54
2023/07/13 10:30:56;;;;;;;6.17;2.57;;;30.10;27.70;;;;;;5052170;28;20813;-53
2023/07/13 10:33:23;;;;;;;3.33;2.30;;;30.10;26.90;;;;;;5052153;28;20408;-52
2023/07/13 10:35:54;;;;;;;4.83;2.43;;;30.10;27.10;;;;;;5052347;28;20815;-54
2023/07/13 10:38:23;;;;;;;6.30;2.37;;;30.10;25.90;;;;;;5052237;28;20411;-51
2023/07/13 10:41:03;;;;;;;2.80;2.33;;;30.00;26.90;;;;;;5052766;28;20471;-52
2023/07/13 10:43:45;;;;;;;6.87;2.47;;;30.10;28.90;;;;;;5056008;28;20411;-55
2023/07/13 10:46:15;;;;;;;5.47;2.40;;;30.20;29.20;;;;;;5055896;28;20403;-51
2023/07/13 10:48:43;;;;;;;4.37;2.43;;;30.40;28.50;;;;;;5055502;28;20420;-54
2023/07/13 10:51:11;;;;;;;4.30;2.10;;;30.60;29.00;;;;;;5055550;28;20477;-54
2023/07/13 10:53:42;;;;;;;5.97;2.97;;;30.60;26.90;;;;;;5055479;28;20473;-54
2023/07/13 10:56:12;;;;;;;4.53;2.20;;;30.70;27.50;;;;;;5055357;28;20423;-53
2023/07/13 10:58:43;;;;;;;5.80;2.37;;;30.90;26.00;;;;;;5055477;28;20450;-52
2023/07/13 11:01:13;;;;;;;3.73;2.23;;;31.10;25.40;;;;;;5054833;28;20458;-56
2023/07/13 11:04:02;;;;;;;5.23;2.30;;;31.20;26.00;;;;;;5055021;28;20424;-53
2023/07/13 11:06:31;;;;;;;3.60;2.03;;;31.20;25.10;;;;;;5055069;28;20953;-55
2023/07/13 11:09:36;;;;;;;5.10;2.00;;;31.20;25.80;;;;;;5055170;28;20926;-55
2023/07/13 11:12:08;;;;;;;6.50;2.07;;;31.20;25.40;;;;;;5055160;28;20450;-52
2023/07/13 11:15:06;;;;;;;5.57;2.13;;;31.20;26.20;;;;;;5055109;28;20491;-54
2023/07/13 11:17:35;;;;;;;2.87;2.27;;;31.10;25.60;;;;;;5054687;28;20423;-54
2023/07/13 11:20:19;;;;;;;8.70;2.33;;;31.00;24.80;;;;;;5054692;28;20428;-53
2023/07/13 11:23:07;;;;;;;3.47;2.20;;;31.00;25.40;;;;;;5054985;28;20403;-53
2023/07/13 11:25:37;;;;;;;7.87;3.20;;;31.20;26.70;;;;;;5055195;28;20439;-55
2023/07/13 11:28:12;;;;;;;6.30;3.50;;;31.30;26.70;;;;;;5054999;28;20911;-52
2023/07/13 11:31:01;;;;;;;5.50;2.80;;;31.40;25.60;;;;;;5054436;28;20439;-53
2023/07/13 11:33:36;;;;;;;3.30;2.20;;;31.40;24.70;;;;;;5055626;28;20396;-55
2023/07/13 11:36:12;;;;;;;4.43;2.40;;;31.30;26.10;;;;;;5055068;28;20423;-52
2023/07/13 11:38:41;;;;;;;4.43;2.40;;;31.50;28.20;;;;;;5053742;28;20497;-55
2023/07/13 11:41:22;;;;;;;3.30;2.13;;;31.70;27.80;;;;;;5053473;28;20459;-52
2023/07/13 11:43:55;;;;;;;11.33;2.70;;;31.80;26.40;;;;;;5054937;28;20436;-55
2023/07/13 11:46:24;;;;;;;8.63;2.47;;;31.80;26.10;;;;;;5054651;28;20420;-54
2023/07/13 11:48:50;;;;;;;7.63;2.70;;;31.80;25.50;;;;;;5070355;28;20433;-52
2023/07/13 11:51:22;;;;;;;2.87;1.60;;;31.80;26.10;;;;;;5074548;28;20752;-51
2023/07/13 11:53:50;;;;;;;4.43;2.20;;;31.80;26.80;;;;;;5074504;28;20414;-54
2023/07/13 11:56:17;;;;;;;2.40;1.93;;;31.80;26.60;;;;;;5074698;28;20477;-55
2023/07/13 11:58:43;;;;;;;6.53;2.77;;;31.80;26.00;;;;;;5074587;28;20426;-52
2023/07/13 12:01:32;;;;;;;9.20;2.37;;;31.80;25.40;;;;;;5072756;28;20451;-56
2023/07/13 12:04:02;;;;;;;3.43;2.43;;;31.90;27.20;;;;;;5074782;28;20419;-52
2023/07/13 12:06:39;;;;;;;6.37;2.30;;;32.00;26.40;;;;;;5075260;28;20411;-52
2023/07/13 12:09:15;;;;;;;3.80;2.70;;;32.10;26.10;;;;;;5075082;28;20484;-54
2023/07/13 12:11:42;;;;;;;7.83;2.30;;;32.40;25.70;;;;;;5074887;28;20837;-54
2023/07/13 12:14:15;;;;;;;4.47;2.70;;;32.50;26.70;;;;;;5071273;28;20439;-54
2023/07/13 12:16:42;;;;;;;4.87;2.13;;;32.70;26.50;;;;;;5070786;28;20895;-54
2023/07/13 12:19:27;;;;;;;4.63;2.60;;;32.70;24.30;;;;;;5075489;28;20442;-55
2023/07/13 12:21:56;;;;;;;4.53;1.83;;;32.90;21.20;;;;;;5075125;28;20549;-54
2023/07/13 12:24:23;;;;;;;5.10;2.60;;;32.90;23.50;;;;;;5074880;28;20933;-52
2023/07/13 12:26:54;;;;;;;3.20;2.13;;;32.90;22.80;;;;;;5074909;28;20418;-55
2023/07/13 12:29:20;;;;;;;3.80;2.23;;;32.90;23.70;;;;;;5075230;28;20427;-53
2023/07/13 12:31:48;;;;;;;3.70;2.20;;;33.00;23.80;;;;;;5075293;28;20479;-53
2023/07/13 12:34:16;;;;;;;5.63;2.20;;;33.10;22.70;;;;;;5075669;28;20204;-54
2023/07/13 12:36:49;;;;;;;6.47;2.57;;;33.00;23.20;;;;;;5074513;28;20407;-54
2023/07/13 12:39:18;;;;;;;6.50;2.63;;;32.90;22.40;;;;;;5074090;28;20430;-53
2023/07/13 12:41:45;;;;;;;6.47;2.30;;;32.70;22.80;;;;;;5074440;28;20461;-52
2023/07/13 12:44:43;;;;;;;8.13;3.03;;;32.60;21.50;;;;;;5074596;28;20402;-53
2023/07/13 12:47:14;;;;;;;4.83;2.40;;;32.40;21.40;;;;;;5073100;28;20426;-54
2023/07/13 12:49:50;;;;;;;11.43;2.87;;;32.40;24.30;;;;;;5074058;28;20441;-52
2023/07/13 12:52:21;;;;;;;4.23;1.93;;;32.40;21.50;;;;;;5074169;28;20402;-54
2023/07/13 12:55:02;;;;;;;5.60;2.40;;;32.20;21.70;;;;;;5074381;28;20421;-55